sensor_id;sensor_type;location;lat;lon;timestamp;P1;durP1;ratioP1;P2;durP2;ratioP2
36391;SDS011;22639;42.690;23.356;2023-06-10T00:01:49;8.20;;;7.38;;
36391;SDS011;22639;42.690;23.356;2023-06-10T00:04:14;8.15;;;7.35;;
36391;SDS011;22639;42.690;23.356;2023-06-10T00:06:41;7.55;;;6.78;;
36391;SDS011;22639;42.690;23.356;2023-06-10T00:09:06;8.57;;;7.35;;
36391;SDS011;22639;42.690;23.356;2023-06-10T00:11:36;10.70;;;8.63;;
36391;SDS011;22639;42.690;23.356;2023-06-10T00:14:03;10.93;;;8.88;;
36391;SDS011;22639;42.690;23.356;2023-06-10T00:16:28;11.93;;;9.23;;
36391;SDS011;22639;42.690;23.356;2023-06-10T00:18:54;14.55;;;9.98;;
36391;SDS011;22639;42.690;23.356;2023-06-10T00:21:29;11.95;;;10.20;;
36391;SDS011;22639;42.690;23.356;2023-06-10T00:23:55;12.18;;;10.57;;
36391;SDS011;22639;42.690;23.356;2023-06-10T00:26:21;10.30;;;8.98;;
36391;SDS011;22639;42.690;23.356;2023-06-10T00:28:46;13.13;;;10.10;;
36391;SDS011;22639;42.690;23.356;2023-06-10T00:31:11;11.80;;;9.60;;
36391;SDS011;22639;42.690;23.356;2023-06-10T00:33:38;14.30;;;9.80;;
36391;SDS011;22639;42.690;23.356;2023-06-10T00:36:03;12.02;;;10.07;;
36391;SDS011;22639;42.690;23.356;2023-06-10T00:38:28;11.38;;;10.25;;
36391;SDS011;22639;42.690;23.356;2023-06-10T00:40:54;13.50;;;10.07;;
36391;SDS011;22639;42.690;23.356;2023-06-10T00:43:19;11.70;;;9.52;;
36391;SDS011;22639;42.690;23.356;2023-06-10T00:45:44;10.70;;;9.60;;
36391;SDS011;22639;42.690;23.356;2023-06-10T00:48:09;11.73;;;9.70;;
36391;SDS011;22639;42.690;23.356;2023-06-10T00:50:35;11.70;;;9.35;;
36391;SDS011;22639;42.690;23.356;2023-06-10T00:53:03;11.07;;;9.07;;
36391;SDS011;22639;42.690;23.356;2023-06-10T00:55:28;12.43;;;8.45;;
36391;SDS011;22639;42.690;23.356;2023-06-10T00:57:53;10.25;;;8.68;;
36391;SDS011;22639;42.690;23.356;2023-06-10T01:00:19;13.27;;;9.35;;
36391;SDS011;22639;42.690;23.356;2023-06-10T01:02:45;10.23;;;8.95;;
36391;SDS011;22639;42.690;23.356;2023-06-10T01:05:10;9.43;;;8.48;;
36391;SDS011;22639;42.690;23.356;2023-06-10T01:10:09;11.05;;;9.10;;
36391;SDS011;22639;42.690;23.356;2023-06-10T01:15:21;10.75;;;9.30;;
36391;SDS011;22639;42.690;23.356;2023-06-10T01:17:57;10.73;;;9.40;;
36391;SDS011;22639;42.690;23.356;2023-06-10T01:20:22;11.35;;;10.18;;
36391;SDS011;22639;42.690;23.356;2023-06-10T01:22:49;12.73;;;9.40;;
36391;SDS011;22639;42.690;23.356;2023-06-10T01:25:15;11.32;;;8.93;;
36391;SDS011;22639;42.690;23.356;2023-06-10T01:27:42;11.27;;;8.90;;
36391;SDS011;22639;42.690;23.356;2023-06-10T01:30:10;11.02;;;8.27;;
36391;SDS011;22639;42.690;23.356;2023-06-10T01:32:43;12.65;;;8.65;;
36391;SDS011;22639;42.690;23.356;2023-06-10T01:35:09;9.27;;;8.38;;
36391;SDS011;22639;42.690;23.356;2023-06-10T01:37:35;10.25;;;8.07;;
36391;SDS011;22639;42.690;23.356;2023-06-10T01:40:01;9.30;;;8.40;;
36391;SDS011;22639;42.690;23.356;2023-06-10T01:42:30;9.23;;;8.25;;
36391;SDS011;22639;42.690;23.356;2023-06-10T01:44:56;8.95;;;7.97;;
36391;SDS011;22639;42.690;23.356;2023-06-10T01:47:22;10.45;;;8.95;;
36391;SDS011;22639;42.690;23.356;2023-06-10T01:49:47;12.75;;;9.05;;
36391;SDS011;22639;42.690;23.356;2023-06-10T01:52:12;9.65;;;8.52;;
36391;SDS011;22639;42.690;23.356;2023-06-10T01:54:38;9.85;;;8.80;;
36391;SDS011;22639;42.690;23.356;2023-06-10T01:57:03;9.15;;;8.20;;
36391;SDS011;22639;42.690;23.356;2023-06-10T01:59:28;9.43;;;8.52;;
36391;SDS011;22639;42.690;23.356;2023-06-10T02:01:54;11.10;;;10.00;;
36391;SDS011;22639;42.690;23.356;2023-06-10T02:04:19;12.57;;;10.57;;
36391;SDS011;22639;42.690;23.356;2023-06-10T02:06:44;11.50;;;10.35;;
36391;SDS011;22639;42.690;23.356;2023-06-10T02:09:10;14.73;;;11.75;;
36391;SDS011;22639;42.690;23.356;2023-06-10T02:11:35;16.02;;;10.60;;
36391;SDS011;22639;42.690;23.356;2023-06-10T02:14:00;12.38;;;10.30;;
36391;SDS011;22639;42.690;23.356;2023-06-10T02:16:26;11.60;;;10.48;;
36391;SDS011;22639;42.690;23.356;2023-06-10T02:18:51;13.20;;;10.45;;
36391;SDS011;22639;42.690;23.356;2023-06-10T02:21:16;14.95;;;9.82;;
36391;SDS011;22639;42.690;23.356;2023-06-10T02:23:42;13.32;;;9.85;;
36391;SDS011;22639;42.690;23.356;2023-06-10T02:26:07;12.55;;;8.95;;
36391;SDS011;22639;42.690;23.356;2023-06-10T02:28:32;10.38;;;9.27;;
36391;SDS011;22639;42.690;23.356;2023-06-10T02:30:57;10.98;;;9.40;;
36391;SDS011;22639;42.690;23.356;2023-06-10T02:33:23;11.15;;;9.32;;
36391;SDS011;22639;42.690;23.356;2023-06-10T02:35:49;10.20;;;8.90;;
36391;SDS011;22639;42.690;23.356;2023-06-10T02:38:14;11.80;;;8.60;;
36391;SDS011;22639;42.690;23.356;2023-06-10T02:40:39;12.07;;;9.10;;
36391;SDS011;22639;42.690;23.356;2023-06-10T02:43:05;9.40;;;8.48;;
36391;SDS011;22639;42.690;23.356;2023-06-10T02:45:30;12.57;;;8.20;;
36391;SDS011;22639;42.690;23.356;2023-06-10T02:47:55;10.18;;;9.18;;
36391;SDS011;22639;42.690;23.356;2023-06-10T02:50:20;11.30;;;10.10;;
36391;SDS011;22639;42.690;23.356;2023-06-10T02:52:46;12.30;;;11.00;;
36391;SDS011;22639;42.690;23.356;2023-06-10T02:55:11;12.02;;;9.95;;
36391;SDS011;22639;42.690;23.356;2023-06-10T02:57:36;11.73;;;9.77;;
36391;SDS011;22639;42.690;23.356;2023-06-10T03:00:02;10.65;;;9.50;;
36391;SDS011;22639;42.690;23.356;2023-06-10T03:02:29;13.90;;;9.40;;
36391;SDS011;22639;42.690;23.356;2023-06-10T03:04:56;13.38;;;9.43;;
36391;SDS011;22639;42.690;23.356;2023-06-10T03:07:22;9.57;;;8.60;;
36391;SDS011;22639;42.690;23.356;2023-06-10T03:09:48;14.48;;;9.20;;
36391;SDS011;22639;42.690;23.356;2023-06-10T03:12:13;10.48;;;8.68;;
36391;SDS011;22639;42.690;23.356;2023-06-10T03:14:38;10.32;;;9.15;;
36391;SDS011;22639;42.690;23.356;2023-06-10T03:17:04;11.43;;;9.23;;
36391;SDS011;22639;42.690;23.356;2023-06-10T03:19:29;10.20;;;8.68;;
36391;SDS011;22639;42.690;23.356;2023-06-10T03:22:08;10.63;;;9.13;;
36391;SDS011;22639;42.690;23.356;2023-06-10T03:24:34;10.15;;;9.10;;
36391;SDS011;22639;42.690;23.356;2023-06-10T03:27:01;11.18;;;10.07;;
36391;SDS011;22639;42.690;23.356;2023-06-10T03:29:30;10.20;;;9.07;;
36391;SDS011;22639;42.690;23.356;2023-06-10T03:31:55;11.55;;;10.35;;
36391;SDS011;22639;42.690;23.356;2023-06-10T03:34:20;11.80;;;9.82;;
36391;SDS011;22639;42.690;23.356;2023-06-10T03:36:46;12.48;;;10.77;;
36391;SDS011;22639;42.690;23.356;2023-06-10T03:39:11;9.75;;;8.30;;
36391;SDS011;22639;42.690;23.356;2023-06-10T03:41:36;10.75;;;8.30;;
36391;SDS011;22639;42.690;23.356;2023-06-10T03:44:02;8.38;;;7.57;;
36391;SDS011;22639;42.690;23.356;2023-06-10T03:46:28;10.55;;;8.88;;
36391;SDS011;22639;42.690;23.356;2023-06-10T03:48:54;8.68;;;7.75;;
36391;SDS011;22639;42.690;23.356;2023-06-10T03:51:19;9.75;;;8.75;;
36391;SDS011;22639;42.690;23.356;2023-06-10T03:53:44;11.35;;;8.02;;
36391;SDS011;22639;42.690;23.356;2023-06-10T03:56:09;10.98;;;8.25;;
36391;SDS011;22639;42.690;23.356;2023-06-10T03:58:35;9.88;;;7.97;;
36391;SDS011;22639;42.690;23.356;2023-06-10T04:01:00;12.18;;;7.75;;
36391;SDS011;22639;42.690;23.356;2023-06-10T04:03:25;8.70;;;7.90;;
36391;SDS011;22639;42.690;23.356;2023-06-10T04:05:51;9.80;;;7.78;;
36391;SDS011;22639;42.690;23.356;2023-06-10T04:08:17;8.30;;;7.15;;
36391;SDS011;22639;42.690;23.356;2023-06-10T04:10:42;8.88;;;8.02;;
36391;SDS011;22639;42.690;23.356;2023-06-10T04:13:07;7.97;;;7.18;;
36391;SDS011;22639;42.690;23.356;2023-06-10T04:15:34;9.20;;;8.30;;
36391;SDS011;22639;42.690;23.356;2023-06-10T04:17:59;8.77;;;7.07;;
36391;SDS011;22639;42.690;23.356;2023-06-10T04:20:26;8.93;;;7.57;;
36391;SDS011;22639;42.690;23.356;2023-06-10T04:22:51;8.57;;;7.18;;
36391;SDS011;22639;42.690;23.356;2023-06-10T04:25:16;9.57;;;7.22;;
36391;SDS011;22639;42.690;23.356;2023-06-10T04:27:42;11.18;;;8.68;;
36391;SDS011;22639;42.690;23.356;2023-06-10T04:30:09;9.32;;;8.00;;
36391;SDS011;22639;42.690;23.356;2023-06-10T04:32:34;8.20;;;7.20;;
36391;SDS011;22639;42.690;23.356;2023-06-10T04:35:00;10.60;;;7.93;;
36391;SDS011;22639;42.690;23.356;2023-06-10T04:37:25;9.25;;;7.65;;
36391;SDS011;22639;42.690;23.356;2023-06-10T04:39:50;8.02;;;7.22;;
36391;SDS011;22639;42.690;23.356;2023-06-10T04:42:16;9.10;;;7.05;;
36391;SDS011;22639;42.690;23.356;2023-06-10T04:44:41;9.45;;;8.45;;
36391;SDS011;22639;42.690;23.356;2023-06-10T04:47:06;10.48;;;7.78;;
36391;SDS011;22639;42.690;23.356;2023-06-10T04:49:32;9.45;;;8.55;;
36391;SDS011;22639;42.690;23.356;2023-06-10T04:51:58;11.68;;;8.23;;
36391;SDS011;22639;42.690;23.356;2023-06-10T04:54:24;10.10;;;8.43;;
36391;SDS011;22639;42.690;23.356;2023-06-10T04:56:50;11.55;;;9.88;;
36391;SDS011;22639;42.690;23.356;2023-06-10T04:59:15;10.07;;;8.13;;
36391;SDS011;22639;42.690;23.356;2023-06-10T05:01:40;11.90;;;8.40;;
36391;SDS011;22639;42.690;23.356;2023-06-10T05:04:05;10.32;;;8.77;;
36391;SDS011;22639;42.690;23.356;2023-06-10T05:06:31;9.65;;;8.32;;
36391;SDS011;22639;42.690;23.356;2023-06-10T05:08:56;13.52;;;8.27;;
36391;SDS011;22639;42.690;23.356;2023-06-10T05:11:21;10.20;;;8.80;;
36391;SDS011;22639;42.690;23.356;2023-06-10T05:13:47;10.75;;;8.23;;
36391;SDS011;22639;42.690;23.356;2023-06-10T05:16:12;10.32;;;8.27;;
36391;SDS011;22639;42.690;23.356;2023-06-10T05:18:37;10.25;;;7.80;;
36391;SDS011;22639;42.690;23.356;2023-06-10T05:21:02;8.95;;;8.05;;
36391;SDS011;22639;42.690;23.356;2023-06-10T05:23:28;9.32;;;8.05;;
36391;SDS011;22639;42.690;23.356;2023-06-10T05:25:53;9.23;;;8.38;;
36391;SDS011;22639;42.690;23.356;2023-06-10T05:28:19;8.73;;;7.93;;
36391;SDS011;22639;42.690;23.356;2023-06-10T05:30:44;9.57;;;8.57;;
36391;SDS011;22639;42.690;23.356;2023-06-10T05:33:10;8.95;;;7.93;;
36391;SDS011;22639;42.690;23.356;2023-06-10T05:35:35;14.27;;;8.90;;
36391;SDS011;22639;42.690;23.356;2023-06-10T05:38:00;18.42;;;9.35;;
36391;SDS011;22639;42.690;23.356;2023-06-10T05:40:25;10.40;;;9.40;;
36391;SDS011;22639;42.690;23.356;2023-06-10T05:42:51;15.25;;;9.60;;
36391;SDS011;22639;42.690;23.356;2023-06-10T05:45:17;10.98;;;8.90;;
36391;SDS011;22639;42.690;23.356;2023-06-10T05:47:42;10.50;;;9.55;;
36391;SDS011;22639;42.690;23.356;2023-06-10T05:50:08;12.90;;;9.10;;
36391;SDS011;22639;42.690;23.356;2023-06-10T05:52:34;11.23;;;10.05;;
36391;SDS011;22639;42.690;23.356;2023-06-10T05:55:00;14.95;;;9.60;;
36391;SDS011;22639;42.690;23.356;2023-06-10T05:57:25;11.88;;;10.50;;
36391;SDS011;22639;42.690;23.356;2023-06-10T05:59:51;12.05;;;10.55;;
36391;SDS011;22639;42.690;23.356;2023-06-10T06:02:16;10.82;;;9.70;;
36391;SDS011;22639;42.690;23.356;2023-06-10T06:04:42;10.77;;;9.68;;
36391;SDS011;22639;42.690;23.356;2023-06-10T06:07:08;12.43;;;9.70;;
36391;SDS011;22639;42.690;23.356;2023-06-10T06:09:34;15.20;;;9.82;;
36391;SDS011;22639;42.690;23.356;2023-06-10T06:12:00;11.82;;;9.35;;
36391;SDS011;22639;42.690;23.356;2023-06-10T06:14:26;12.13;;;9.88;;
36391;SDS011;22639;42.690;23.356;2023-06-10T06:16:51;15.90;;;11.05;;
36391;SDS011;22639;42.690;23.356;2023-06-10T06:19:16;13.02;;;9.75;;
36391;SDS011;22639;42.690;23.356;2023-06-10T06:21:41;10.93;;;9.15;;
36391;SDS011;22639;42.690;23.356;2023-06-10T06:24:07;11.88;;;8.68;;
36391;SDS011;22639;42.690;23.356;2023-06-10T06:26:32;9.32;;;8.40;;
36391;SDS011;22639;42.690;23.356;2023-06-10T06:28:57;10.60;;;8.55;;
36391;SDS011;22639;42.690;23.356;2023-06-10T06:31:22;11.57;;;9.30;;
36391;SDS011;22639;42.690;23.356;2023-06-10T06:33:48;13.23;;;9.25;;
36391;SDS011;22639;42.690;23.356;2023-06-10T06:36:13;10.43;;;9.30;;
36391;SDS011;22639;42.690;23.356;2023-06-10T06:38:39;13.98;;;9.57;;
36391;SDS011;22639;42.690;23.356;2023-06-10T06:41:04;10.13;;;8.98;;
36391;SDS011;22639;42.690;23.356;2023-06-10T06:43:31;10.32;;;9.32;;
36391;SDS011;22639;42.690;23.356;2023-06-10T06:45:57;13.45;;;8.57;;
36391;SDS011;22639;42.690;23.356;2023-06-10T06:48:23;9.70;;;8.80;;
36391;SDS011;22639;42.690;23.356;2023-06-10T06:50:48;10.23;;;8.73;;
36391;SDS011;22639;42.690;23.356;2023-06-10T06:53:13;10.95;;;8.43;;
36391;SDS011;22639;42.690;23.356;2023-06-10T06:55:38;11.43;;;7.53;;
36391;SDS011;22639;42.690;23.356;2023-06-10T06:58:04;8.57;;;7.38;;
36391;SDS011;22639;42.690;23.356;2023-06-10T07:00:30;7.57;;;6.88;;
36391;SDS011;22639;42.690;23.356;2023-06-10T07:02:55;7.68;;;5.97;;
36391;SDS011;22639;42.690;23.356;2023-06-10T07:05:22;7.28;;;6.32;;
36391;SDS011;22639;42.690;23.356;2023-06-10T07:07:47;8.02;;;7.00;;
36391;SDS011;22639;42.690;23.356;2023-06-10T07:10:12;7.10;;;6.40;;
36391;SDS011;22639;42.690;23.356;2023-06-10T07:12:37;11.15;;;7.78;;
36391;SDS011;22639;42.690;23.356;2023-06-10T07:15:03;7.70;;;5.90;;
36391;SDS011;22639;42.690;23.356;2023-06-10T07:17:28;7.95;;;7.13;;
36391;SDS011;22639;42.690;23.356;2023-06-10T07:19:53;7.60;;;6.78;;
36391;SDS011;22639;42.690;23.356;2023-06-10T07:22:22;9.13;;;5.97;;
36391;SDS011;22639;42.690;23.356;2023-06-10T07:24:47;6.75;;;5.78;;
36391;SDS011;22639;42.690;23.356;2023-06-10T07:27:12;6.32;;;5.45;;
36391;SDS011;22639;42.690;23.356;2023-06-10T07:29:37;6.50;;;5.90;;
36391;SDS011;22639;42.690;23.356;2023-06-10T07:32:03;7.85;;;5.80;;
36391;SDS011;22639;42.690;23.356;2023-06-10T07:34:28;8.85;;;6.15;;
36391;SDS011;22639;42.690;23.356;2023-06-10T07:36:54;5.10;;;4.68;;
36391;SDS011;22639;42.690;23.356;2023-06-10T07:39:19;5.95;;;4.60;;
36391;SDS011;22639;42.690;23.356;2023-06-10T07:41:44;8.40;;;4.47;;
36391;SDS011;22639;42.690;23.356;2023-06-10T07:44:10;4.82;;;4.10;;
36391;SDS011;22639;42.690;23.356;2023-06-10T07:46:35;4.13;;;3.83;;
36391;SDS011;22639;42.690;23.356;2023-06-10T07:49:00;4.88;;;4.03;;
36391;SDS011;22639;42.690;23.356;2023-06-10T07:51:26;6.88;;;4.30;;
36391;SDS011;22639;42.690;23.356;2023-06-10T07:53:51;4.55;;;4.13;;
36391;SDS011;22639;42.690;23.356;2023-06-10T07:56:17;4.40;;;3.78;;
36391;SDS011;22639;42.690;23.356;2023-06-10T07:58:43;3.83;;;3.53;;
36391;SDS011;22639;42.690;23.356;2023-06-10T08:01:08;4.97;;;4.47;;
36391;SDS011;22639;42.690;23.356;2023-06-10T08:03:33;7.85;;;3.40;;
36391;SDS011;22639;42.690;23.356;2023-06-10T08:05:59;4.10;;;3.60;;
36391;SDS011;22639;42.690;23.356;2023-06-10T08:08:24;5.45;;;3.97;;
36391;SDS011;22639;42.690;23.356;2023-06-10T08:10:49;3.78;;;3.45;;
36391;SDS011;22639;42.690;23.356;2023-06-10T08:13:15;6.90;;;3.83;;
36391;SDS011;22639;42.690;23.356;2023-06-10T08:15:40;5.70;;;3.90;;
36391;SDS011;22639;42.690;23.356;2023-06-10T08:18:05;6.95;;;4.10;;
36391;SDS011;22639;42.690;23.356;2023-06-10T08:20:31;4.35;;;3.72;;
36391;SDS011;22639;42.690;23.356;2023-06-10T08:22:57;3.70;;;3.40;;
36391;SDS011;22639;42.690;23.356;2023-06-10T08:25:22;3.87;;;3.50;;
36391;SDS011;22639;42.690;23.356;2023-06-10T08:27:47;4.90;;;3.70;;
36391;SDS011;22639;42.690;23.356;2023-06-10T08:30:13;3.13;;;2.92;;
36391;SDS011;22639;42.690;23.356;2023-06-10T08:32:38;3.85;;;3.22;;
36391;SDS011;22639;42.690;23.356;2023-06-10T08:35:04;5.90;;;4.30;;
36391;SDS011;22639;42.690;23.356;2023-06-10T08:37:29;4.20;;;3.80;;
36391;SDS011;22639;42.690;23.356;2023-06-10T08:39:54;4.07;;;3.78;;
36391;SDS011;22639;42.690;23.356;2023-06-10T08:42:24;4.63;;;2.95;;
36391;SDS011;22639;42.690;23.356;2023-06-10T08:44:55;6.72;;;3.28;;
36391;SDS011;22639;42.690;23.356;2023-06-10T08:47:22;3.50;;;2.50;;
36391;SDS011;22639;42.690;23.356;2023-06-10T08:49:48;3.00;;;2.80;;
36391;SDS011;22639;42.690;23.356;2023-06-10T08:52:14;3.50;;;3.17;;
36391;SDS011;22639;42.690;23.356;2023-06-10T08:54:41;3.30;;;2.95;;
36391;SDS011;22639;42.690;23.356;2023-06-10T08:57:09;3.45;;;3.15;;
36391;SDS011;22639;42.690;23.356;2023-06-10T08:59:36;2.97;;;2.78;;
36391;SDS011;22639;42.690;23.356;2023-06-10T09:02:02;3.13;;;2.83;;
36391;SDS011;22639;42.690;23.356;2023-06-10T09:04:27;4.05;;;2.92;;
36391;SDS011;22639;42.690;23.356;2023-06-10T09:06:53;3.25;;;2.95;;
36391;SDS011;22639;42.690;23.356;2023-06-10T09:09:19;3.17;;;2.80;;
36391;SDS011;22639;42.690;23.356;2023-06-10T09:11:47;3.25;;;2.95;;
36391;SDS011;22639;42.690;23.356;2023-06-10T09:14:13;2.90;;;2.70;;
36391;SDS011;22639;42.690;23.356;2023-06-10T09:16:38;3.00;;;2.78;;
36391;SDS011;22639;42.690;23.356;2023-06-10T09:19:04;3.47;;;3.17;;
36391;SDS011;22639;42.690;23.356;2023-06-10T09:21:33;3.05;;;2.80;;
36391;SDS011;22639;42.690;23.356;2023-06-10T09:23:58;3.17;;;2.88;;
36391;SDS011;22639;42.690;23.356;2023-06-10T09:26:27;3.42;;;3.13;;
36391;SDS011;22639;42.690;23.356;2023-06-10T09:28:57;5.03;;;3.33;;
36391;SDS011;22639;42.690;23.356;2023-06-10T09:31:22;4.25;;;3.03;;
36391;SDS011;22639;42.690;23.356;2023-06-10T09:33:48;3.45;;;3.15;;
36391;SDS011;22639;42.690;23.356;2023-06-10T09:36:21;3.03;;;2.83;;
36391;SDS011;22639;42.690;23.356;2023-06-10T09:38:46;3.22;;;3.03;;
36391;SDS011;22639;42.690;23.356;2023-06-10T09:41:14;5.55;;;4.95;;
36391;SDS011;22639;42.690;23.356;2023-06-10T09:43:41;3.47;;;3.10;;
36391;SDS011;22639;42.690;23.356;2023-06-10T09:46:17;4.82;;;3.33;;
36391;SDS011;22639;42.690;23.356;2023-06-10T09:48:43;3.63;;;3.33;;
36391;SDS011;22639;42.690;23.356;2023-06-10T09:51:09;4.13;;;3.72;;
36391;SDS011;22639;42.690;23.356;2023-06-10T09:53:34;4.35;;;4.03;;
36391;SDS011;22639;42.690;23.356;2023-06-10T09:56:00;4.70;;;3.38;;
36391;SDS011;22639;42.690;23.356;2023-06-10T09:58:35;4.05;;;3.65;;
36391;SDS011;22639;42.690;23.356;2023-06-10T10:01:03;3.78;;;3.47;;
36391;SDS011;22639;42.690;23.356;2023-06-10T10:03:29;3.75;;;3.45;;
36391;SDS011;22639;42.690;23.356;2023-06-10T10:05:58;3.50;;;3.20;;
36391;SDS011;22639;42.690;23.356;2023-06-10T10:08:24;3.38;;;3.08;;
36391;SDS011;22639;42.690;23.356;2023-06-10T10:10:50;3.42;;;3.13;;
36391;SDS011;22639;42.690;23.356;2023-06-10T10:13:15;3.50;;;3.20;;
36391;SDS011;22639;42.690;23.356;2023-06-10T10:15:40;7.10;;;3.55;;
36391;SDS011;22639;42.690;23.356;2023-06-10T10:18:07;3.42;;;3.13;;
36391;SDS011;22639;42.690;23.356;2023-06-10T10:20:34;3.70;;;3.40;;
36391;SDS011;22639;42.690;23.356;2023-06-10T10:23:02;3.55;;;3.28;;
36391;SDS011;22639;42.690;23.356;2023-06-10T10:25:29;3.63;;;3.42;;
36391;SDS011;22639;42.690;23.356;2023-06-10T10:27:59;4.65;;;3.58;;
36391;SDS011;22639;42.690;23.356;2023-06-10T10:30:27;5.40;;;4.30;;
36391;SDS011;22639;42.690;23.356;2023-06-10T10:33:05;3.40;;;3.10;;
36391;SDS011;22639;42.690;23.356;2023-06-10T10:35:32;3.60;;;3.30;;
36391;SDS011;22639;42.690;23.356;2023-06-10T10:37:58;4.78;;;3.63;;
36391;SDS011;22639;42.690;23.356;2023-06-10T10:40:23;4.93;;;3.33;;
36391;SDS011;22639;42.690;23.356;2023-06-10T10:42:49;3.10;;;2.80;;
36391;SDS011;22639;42.690;23.356;2023-06-10T10:45:15;3.72;;;3.42;;
36391;SDS011;22639;42.690;23.356;2023-06-10T10:47:41;3.53;;;3.22;;
36391;SDS011;22639;42.690;23.356;2023-06-10T10:50:17;3.60;;;3.30;;
36391;SDS011;22639;42.690;23.356;2023-06-10T10:52:55;3.97;;;3.00;;
36391;SDS011;22639;42.690;23.356;2023-06-10T10:55:23;3.58;;;3.28;;
36391;SDS011;22639;42.690;23.356;2023-06-10T10:58:05;4.20;;;3.75;;
36391;SDS011;22639;42.690;23.356;2023-06-10T11:00:34;3.88;;;3.33;;
36391;SDS011;22639;42.690;23.356;2023-06-10T11:03:04;4.40;;;3.92;;
36391;SDS011;22639;42.690;23.356;2023-06-10T11:05:32;4.05;;;3.60;;
36391;SDS011;22639;42.690;23.356;2023-06-10T11:08:00;4.05;;;3.75;;
36391;SDS011;22639;42.690;23.356;2023-06-10T11:10:32;5.88;;;3.75;;
36391;SDS011;22639;42.690;23.356;2023-06-10T11:12:57;4.47;;;3.97;;
36391;SDS011;22639;42.690;23.356;2023-06-10T11:15:27;6.72;;;4.07;;
36391;SDS011;22639;42.690;23.356;2023-06-10T11:18:09;3.83;;;3.53;;
36391;SDS011;22639;42.690;23.356;2023-06-10T11:20:43;4.50;;;3.90;;
36391;SDS011;22639;42.690;23.356;2023-06-10T11:23:09;4.32;;;4.03;;
36391;SDS011;22639;42.690;23.356;2023-06-10T11:25:38;5.85;;;4.28;;
36391;SDS011;22639;42.690;23.356;2023-06-10T11:28:08;4.68;;;4.28;;
36391;SDS011;22639;42.690;23.356;2023-06-10T11:30:42;4.38;;;3.67;;
36391;SDS011;22639;42.690;23.356;2023-06-10T11:33:07;4.32;;;3.92;;
36391;SDS011;22639;42.690;23.356;2023-06-10T11:35:33;5.70;;;4.65;;
36391;SDS011;22639;42.690;23.356;2023-06-10T11:37:58;3.65;;;3.35;;
36391;SDS011;22639;42.690;23.356;2023-06-10T11:40:23;4.55;;;4.03;;
36391;SDS011;22639;42.690;23.356;2023-06-10T11:42:49;5.88;;;4.13;;
36391;SDS011;22639;42.690;23.356;2023-06-10T11:45:15;3.92;;;3.53;;
36391;SDS011;22639;42.690;23.356;2023-06-10T11:47:42;8.68;;;3.70;;
36391;SDS011;22639;42.690;23.356;2023-06-10T11:50:30;3.95;;;3.10;;
36391;SDS011;22639;42.690;23.356;2023-06-10T11:52:55;3.97;;;3.25;;
36391;SDS011;22639;42.690;23.356;2023-06-10T11:55:21;4.22;;;3.83;;
36391;SDS011;22639;42.690;23.356;2023-06-10T11:57:46;4.43;;;3.08;;
36391;SDS011;22639;42.690;23.356;2023-06-10T12:00:12;3.20;;;2.90;;
36391;SDS011;22639;42.690;23.356;2023-06-10T12:02:37;4.53;;;2.97;;
36391;SDS011;22639;42.690;23.356;2023-06-10T12:05:12;3.35;;;3.05;;
36391;SDS011;22639;42.690;23.356;2023-06-10T12:07:37;3.80;;;2.95;;
36391;SDS011;22639;42.690;23.356;2023-06-10T12:10:02;4.32;;;3.45;;
36391;SDS011;22639;42.690;23.356;2023-06-10T12:12:28;3.00;;;2.72;;
36391;SDS011;22639;42.690;23.356;2023-06-10T12:14:58;3.53;;;3.22;;
36391;SDS011;22639;42.690;23.356;2023-06-10T12:19:55;3.38;;;3.05;;
36391;SDS011;22639;42.690;23.356;2023-06-10T12:22:21;5.93;;;3.03;;
36391;SDS011;22639;42.690;23.356;2023-06-10T12:25:06;3.72;;;3.15;;
36391;SDS011;22639;42.690;23.356;2023-06-10T12:27:32;3.95;;;3.35;;
36391;SDS011;22639;42.690;23.356;2023-06-10T12:29:59;3.47;;;3.17;;
36391;SDS011;22639;42.690;23.356;2023-06-10T12:35:07;3.10;;;2.80;;
36391;SDS011;22639;42.690;23.356;2023-06-10T12:37:32;4.15;;;3.22;;
36391;SDS011;22639;42.690;23.356;2023-06-10T12:40:02;4.38;;;3.22;;
36391;SDS011;22639;42.690;23.356;2023-06-10T12:42:28;4.82;;;4.07;;
36391;SDS011;22639;42.690;23.356;2023-06-10T12:44:55;10.13;;;3.25;;
36391;SDS011;22639;42.690;23.356;2023-06-10T12:47:28;5.10;;;2.95;;
36391;SDS011;22639;42.690;23.356;2023-06-10T12:49:53;4.55;;;3.03;;
36391;SDS011;22639;42.690;23.356;2023-06-10T12:52:19;4.75;;;3.10;;
36391;SDS011;22639;42.690;23.356;2023-06-10T12:54:45;3.65;;;3.08;;
36391;SDS011;22639;42.690;23.356;2023-06-10T12:57:11;2.80;;;2.60;;
36391;SDS011;22639;42.690;23.356;2023-06-10T12:59:37;3.20;;;2.90;;
36391;SDS011;22639;42.690;23.356;2023-06-10T13:02:02;3.45;;;3.15;;
36391;SDS011;22639;42.690;23.356;2023-06-10T13:04:27;5.93;;;3.38;;
36391;SDS011;22639;42.690;23.356;2023-06-10T13:06:52;3.50;;;3.20;;
36391;SDS011;22639;42.690;23.356;2023-06-10T13:09:18;4.13;;;3.20;;
36391;SDS011;22639;42.690;23.356;2023-06-10T13:11:43;4.55;;;2.90;;
36391;SDS011;22639;42.690;23.356;2023-06-10T13:14:09;3.25;;;2.90;;
36391;SDS011;22639;42.690;23.356;2023-06-10T13:16:35;3.20;;;2.90;;
36391;SDS011;22639;42.690;23.356;2023-06-10T13:19:02;3.80;;;3.50;;
36391;SDS011;22639;42.690;23.356;2023-06-10T13:21:30;4.13;;;3.72;;
36391;SDS011;22639;42.690;23.356;2023-06-10T13:23:55;4.03;;;3.20;;
36391;SDS011;22639;42.690;23.356;2023-06-10T13:26:21;4.40;;;3.50;;
36391;SDS011;22639;42.690;23.356;2023-06-10T13:28:47;10.02;;;3.78;;
36391;SDS011;22639;42.690;23.356;2023-06-10T13:31:13;6.22;;;4.05;;
36391;SDS011;22639;42.690;23.356;2023-06-10T13:33:39;4.38;;;3.97;;
36391;SDS011;22639;42.690;23.356;2023-06-10T13:36:05;7.93;;;4.43;;
36391;SDS011;22639;42.690;23.356;2023-06-10T13:38:31;6.68;;;3.90;;
36391;SDS011;22639;42.690;23.356;2023-06-10T13:40:56;5.15;;;4.13;;
36391;SDS011;22639;42.690;23.356;2023-06-10T13:43:23;8.85;;;4.95;;
36391;SDS011;22639;42.690;23.356;2023-06-10T13:45:48;5.65;;;4.68;;
36391;SDS011;22639;42.690;23.356;2023-06-10T13:48:13;5.53;;;4.00;;
36391;SDS011;22639;42.690;23.356;2023-06-10T13:50:38;5.57;;;4.70;;
36391;SDS011;22639;42.690;23.356;2023-06-10T13:53:03;5.78;;;5.20;;
36391;SDS011;22639;42.690;23.356;2023-06-10T13:55:29;5.93;;;4.78;;
36391;SDS011;22639;42.690;23.356;2023-06-10T13:57:54;11.73;;;5.22;;
36391;SDS011;22639;42.690;23.356;2023-06-10T14:00:20;7.20;;;4.80;;
36391;SDS011;22639;42.690;23.356;2023-06-10T14:02:45;5.97;;;4.80;;
36391;SDS011;22639;42.690;23.356;2023-06-10T14:05:11;9.60;;;4.35;;
36391;SDS011;22639;42.690;23.356;2023-06-10T14:07:36;5.05;;;4.45;;
36391;SDS011;22639;42.690;23.356;2023-06-10T14:10:02;5.35;;;4.30;;
36391;SDS011;22639;42.690;23.356;2023-06-10T14:12:28;7.15;;;4.32;;
36391;SDS011;22639;42.690;23.356;2023-06-10T14:14:53;4.95;;;4.50;;
36391;SDS011;22639;42.690;23.356;2023-06-10T14:17:18;4.25;;;3.85;;
36391;SDS011;22639;42.690;23.356;2023-06-10T14:19:43;6.10;;;5.25;;
36391;SDS011;22639;42.690;23.356;2023-06-10T14:22:09;6.05;;;4.32;;
36391;SDS011;22639;42.690;23.356;2023-06-10T14:24:35;7.38;;;4.43;;
36391;SDS011;22639;42.690;23.356;2023-06-10T14:27:01;5.53;;;4.20;;
36391;SDS011;22639;42.690;23.356;2023-06-10T14:29:27;7.60;;;4.68;;
36391;SDS011;22639;42.690;23.356;2023-06-10T14:31:54;7.30;;;4.22;;
36391;SDS011;22639;42.690;23.356;2023-06-10T14:34:19;4.60;;;4.20;;